sensor_id;sensor_type;location;lat;lon;timestamp;P1;durP1;ratioP1;P2;durP2;ratioP2
73670;SDS011;61968;48.178;11.566;2022-09-28T00:02:07;0.25;;;0.20;;
73670;SDS011;61968;48.178;11.566;2022-09-28T00:04:33;0.15;;;0.15;;
73670;SDS011;61968;48.178;11.566;2022-09-28T00:07:00;1.70;;;0.30;;
73670;SDS011;61968;48.178;11.566;2022-09-28T00:09:26;0.20;;;0.20;;
73670;SDS011;61968;48.178;11.566;2022-09-28T00:14:21;0.10;;;0.10;;
73670;SDS011;61968;48.178;11.566;2022-09-28T00:16:47;0.28;;;0.10;;
73670;SDS011;61968;48.178;11.566;2022-09-28T00:19:14;0.20;;;0.20;;
73670;SDS011;61968;48.178;11.566;2022-09-28T00:21:40;0.10;;;0.10;;
73670;SDS011;61968;48.178;11.566;2022-09-28T00:24:09;0.30;;;0.20;;
73670;SDS011;61968;48.178;11.566;2022-09-28T00:26:39;1.10;;;0.20;;
73670;SDS011;61968;48.178;11.566;2022-09-28T00:29:13;0.88;;;0.10;;
73670;SDS011;61968;48.178;11.566;2022-09-28T00:31:42;0.50;;;0.10;;
73670;SDS011;61968;48.178;11.566;2022-09-28T00:34:08;0.10;;;0.03;;
73670;SDS011;61968;48.178;11.566;2022-09-28T00:36:35;0.75;;;0.20;;
73670;SDS011;61968;48.178;11.566;2022-09-28T00:39:03;0.55;;;0.10;;
73670;SDS011;61968;48.178;11.566;2022-09-28T00:41:31;0.17;;;0.17;;
73670;SDS011;61968;48.178;11.566;2022-09-28T00:47:00;1.17;;;0.10;;
73670;SDS011;61968;48.178;11.566;2022-09-28T00:49:29;0.63;;;0.10;;
73670;SDS011;61968;48.178;11.566;2022-09-28T00:51:59;0.20;;;0.20;;
73670;SDS011;61968;48.178;11.566;2022-09-28T00:54:26;0.30;;;0.20;;
73670;SDS011;61968;48.178;11.566;2022-09-28T00:56:53;0.10;;;0.10;;
73670;SDS011;61968;48.178;11.566;2022-09-28T00:59:20;0.43;;;0.10;;
73670;SDS011;61968;48.178;11.566;2022-09-28T01:01:50;0.40;;;0.40;;
73670;SDS011;61968;48.178;11.566;2022-09-28T01:04:16;0.77;;;0.20;;
73670;SDS011;61968;48.178;11.566;2022-09-28T01:06:43;0.00;;;0.00;;
73670;SDS011;61968;48.178;11.566;2022-09-28T01:09:11;0.25;;;0.10;;
73670;SDS011;61968;48.178;11.566;2022-09-28T01:11:40;0.10;;;0.10;;
73670;SDS011;61968;48.178;11.566;2022-09-28T01:14:08;0.20;;;0.10;;
73670;SDS011;61968;48.178;11.566;2022-09-28T01:16:40;0.43;;;0.40;;
73670;SDS011;61968;48.178;11.566;2022-09-28T01:19:25;0.13;;;0.13;;
73670;SDS011;61968;48.178;11.566;2022-09-28T01:22:11;0.22;;;0.22;;
73670;SDS011;61968;48.178;11.566;2022-09-28T01:24:52;0.57;;;0.10;;
73670;SDS011;61968;48.178;11.566;2022-09-28T01:27:23;0.50;;;0.20;;
73670;SDS011;61968;48.178;11.566;2022-09-28T01:29:55;0.20;;;0.20;;
73670;SDS011;61968;48.178;11.566;2022-09-28T01:32:31;0.10;;;0.00;;
73670;SDS011;61968;48.178;11.566;2022-09-28T01:35:04;0.05;;;0.00;;
73670;SDS011;61968;48.178;11.566;2022-09-28T01:37:36;0.30;;;0.05;;
73670;SDS011;61968;48.178;11.566;2022-09-28T01:40:10;0.22;;;0.00;;
73670;SDS011;61968;48.178;11.566;2022-09-28T01:42:40;0.30;;;0.10;;
73670;SDS011;61968;48.178;11.566;2022-09-28T01:45:11;1.75;;;0.10;;
73670;SDS011;61968;48.178;11.566;2022-09-28T01:47:41;2.65;;;0.20;;
73670;SDS011;61968;48.178;11.566;2022-09-28T01:50:12;2.03;;;0.00;;
73670;SDS011;61968;48.178;11.566;2022-09-28T01:52:43;0.00;;;0.00;;
73670;SDS011;61968;48.178;11.566;2022-09-28T01:55:15;1.35;;;0.10;;
73670;SDS011;61968;48.178;11.566;2022-09-28T01:57:49;1.75;;;0.30;;
73670;SDS011;61968;48.178;11.566;2022-09-28T02:00:19;0.50;;;0.20;;
73670;SDS011;61968;48.178;11.566;2022-09-28T02:02:51;0.50;;;0.20;;
73670;SDS011;61968;48.178;11.566;2022-09-28T02:07:53;0.63;;;0.20;;
73670;SDS011;61968;48.178;11.566;2022-09-28T02:10:25;0.00;;;0.00;;
73670;SDS011;61968;48.178;11.566;2022-09-28T02:12:56;1.10;;;0.20;;
73670;SDS011;61968;48.178;11.566;2022-09-28T02:15:28;0.70;;;0.10;;
73670;SDS011;61968;48.178;11.566;2022-09-28T02:18:00;0.15;;;0.15;;
73670;SDS011;61968;48.178;11.566;2022-09-28T02:20:27;0.15;;;0.10;;
73670;SDS011;61968;48.178;11.566;2022-09-28T02:22:57;0.38;;;0.15;;
73670;SDS011;61968;48.178;11.566;2022-09-28T02:25:27;0.43;;;0.20;;
73670;SDS011;61968;48.178;11.566;2022-09-28T02:28:01;0.10;;;0.10;;
73670;SDS011;61968;48.178;11.566;2022-09-28T02:30:30;0.20;;;0.10;;
73670;SDS011;61968;48.178;11.566;2022-09-28T02:33:00;1.27;;;0.28;;
73670;SDS011;61968;48.178;11.566;2022-09-28T02:35:30;0.00;;;0.00;;
73670;SDS011;61968;48.178;11.566;2022-09-28T02:37:58;1.48;;;0.32;;
73670;SDS011;61968;48.178;11.566;2022-09-28T02:40:27;0.47;;;0.20;;
73670;SDS011;61968;48.178;11.566;2022-09-28T02:42:59;0.05;;;0.05;;
73670;SDS011;61968;48.178;11.566;2022-09-28T02:45:40;0.10;;;0.10;;
73670;SDS011;61968;48.178;11.566;2022-09-28T02:48:18;0.65;;;0.30;;
73670;SDS011;61968;48.178;11.566;2022-09-28T02:50:58;0.43;;;0.20;;
73670;SDS011;61968;48.178;11.566;2022-09-28T02:53:44;0.10;;;0.10;;
73670;SDS011;61968;48.178;11.566;2022-09-28T02:56:28;0.10;;;0.10;;
73670;SDS011;61968;48.178;11.566;2022-09-28T02:59:15;0.65;;;0.28;;
73670;SDS011;61968;48.178;11.566;2022-09-28T03:01:59;0.50;;;0.22;;
73670;SDS011;61968;48.178;11.566;2022-09-28T03:04:33;0.85;;;0.17;;
73670;SDS011;61968;48.178;11.566;2022-09-28T03:07:05;0.52;;;0.10;;
73670;SDS011;61968;48.178;11.566;2022-09-28T03:09:39;1.75;;;0.30;;
73670;SDS011;61968;48.178;11.566;2022-09-28T03:12:11;0.30;;;0.20;;
73670;SDS011;61968;48.178;11.566;2022-09-28T03:14:41;0.10;;;0.10;;
73670;SDS011;61968;48.178;11.566;2022-09-28T03:17:08;1.75;;;0.20;;
73670;SDS011;61968;48.178;11.566;2022-09-28T03:19:34;0.20;;;0.10;;
73670;SDS011;61968;48.178;11.566;2022-09-28T03:22:01;0.73;;;0.32;;
73670;SDS011;61968;48.178;11.566;2022-09-28T03:24:29;0.70;;;0.20;;
73670;SDS011;61968;48.178;11.566;2022-09-28T03:26:56;0.25;;;0.25;;
73670;SDS011;61968;48.178;11.566;2022-09-28T03:29:22;0.20;;;0.20;;
73670;SDS011;61968;48.178;11.566;2022-09-28T03:31:50;0.08;;;0.08;;
73670;SDS011;61968;48.178;11.566;2022-09-28T03:34:16;0.32;;;0.20;;
73670;SDS011;61968;48.178;11.566;2022-09-28T03:39:09;0.80;;;0.50;;
73670;SDS011;61968;48.178;11.566;2022-09-28T03:44:02;1.05;;;0.60;;
73670;SDS011;61968;48.178;11.566;2022-09-28T03:46:29;0.77;;;0.40;;
73670;SDS011;61968;48.178;11.566;2022-09-28T03:48:56;0.88;;;0.30;;
73670;SDS011;61968;48.178;11.566;2022-09-28T03:51:23;0.47;;;0.20;;
73670;SDS011;61968;48.178;11.566;2022-09-28T03:53:49;0.75;;;0.20;;
73670;SDS011;61968;48.178;11.566;2022-09-28T03:56:16;0.38;;;0.13;;
73670;SDS011;61968;48.178;11.566;2022-09-28T03:58:42;0.25;;;0.22;;
73670;SDS011;61968;48.178;11.566;2022-09-28T04:03:37;0.32;;;0.30;;
73670;SDS011;61968;48.178;11.566;2022-09-28T04:06:05;0.20;;;0.15;;
73670;SDS011;61968;48.178;11.566;2022-09-28T04:08:31;0.57;;;0.28;;
73670;SDS011;61968;48.178;11.566;2022-09-28T04:10:59;0.32;;;0.30;;
73670;SDS011;61968;48.178;11.566;2022-09-28T04:13:26;0.55;;;0.38;;
73670;SDS011;61968;48.178;11.566;2022-09-28T04:15:54;1.85;;;0.20;;
73670;SDS011;61968;48.178;11.566;2022-09-28T04:18:22;0.00;;;0.00;;
73670;SDS011;61968;48.178;11.566;2022-09-28T04:20:56;0.17;;;0.10;;
73670;SDS011;61968;48.178;11.566;2022-09-28T04:23:25;0.28;;;0.10;;
73670;SDS011;61968;48.178;11.566;2022-09-28T04:25:52;0.77;;;0.20;;
73670;SDS011;61968;48.178;11.566;2022-09-28T04:28:18;1.33;;;0.60;;
73670;SDS011;61968;48.178;11.566;2022-09-28T04:31:02;0.60;;;0.47;;
73670;SDS011;61968;48.178;11.566;2022-09-28T04:33:33;1.55;;;0.47;;
73670;SDS011;61968;48.178;11.566;2022-09-28T04:35:59;2.35;;;1.05;;
73670;SDS011;61968;48.178;11.566;2022-09-28T04:38:27;1.02;;;0.47;;
73670;SDS011;61968;48.178;11.566;2022-09-28T04:40:54;0.82;;;0.28;;
73670;SDS011;61968;48.178;11.566;2022-09-28T04:45:47;0.10;;;0.10;;
73670;SDS011;61968;48.178;11.566;2022-09-28T04:48:13;0.20;;;0.13;;
73670;SDS011;61968;48.178;11.566;2022-09-28T04:50:40;0.70;;;0.28;;
73670;SDS011;61968;48.178;11.566;2022-09-28T04:53:06;0.35;;;0.32;;
73670;SDS011;61968;48.178;11.566;2022-09-28T04:55:34;0.30;;;0.30;;
73670;SDS011;61968;48.178;11.566;2022-09-28T04:58:02;1.02;;;0.32;;
73670;SDS011;61968;48.178;11.566;2022-09-28T05:00:29;0.40;;;0.35;;
73670;SDS011;61968;48.178;11.566;2022-09-28T05:02:59;2.63;;;0.60;;
73670;SDS011;61968;48.178;11.566;2022-09-28T05:05:26;2.05;;;0.30;;
73670;SDS011;61968;48.178;11.566;2022-09-28T05:07:55;1.17;;;0.50;;
73670;SDS011;61968;48.178;11.566;2022-09-28T05:10:23;0.20;;;0.20;;
73670;SDS011;61968;48.178;11.566;2022-09-28T05:12:50;0.20;;;0.20;;
73670;SDS011;61968;48.178;11.566;2022-09-28T05:15:17;0.55;;;0.40;;
73670;SDS011;61968;48.178;11.566;2022-09-28T05:17:43;0.50;;;0.30;;
73670;SDS011;61968;48.178;11.566;2022-09-28T05:20:10;1.33;;;0.50;;
73670;SDS011;61968;48.178;11.566;2022-09-28T05:22:37;0.85;;;0.30;;
73670;SDS011;61968;48.178;11.566;2022-09-28T05:27:30;3.15;;;0.70;;
73670;SDS011;61968;48.178;11.566;2022-09-28T05:29:57;5.55;;;2.67;;
73670;SDS011;61968;48.178;11.566;2022-09-28T05:32:24;2.88;;;1.02;;
73670;SDS011;61968;48.178;11.566;2022-09-28T05:34:50;3.65;;;0.60;;
73670;SDS011;61968;48.178;11.566;2022-09-28T05:37:17;0.60;;;0.45;;
73670;SDS011;61968;48.178;11.566;2022-09-28T05:39:43;2.22;;;0.95;;
73670;SDS011;61968;48.178;11.566;2022-09-28T05:44:36;1.58;;;0.70;;
73670;SDS011;61968;48.178;11.566;2022-09-28T05:47:04;0.55;;;0.40;;
73670;SDS011;61968;48.178;11.566;2022-09-28T05:49:31;0.22;;;0.22;;
73670;SDS011;61968;48.178;11.566;2022-09-28T05:51:57;0.38;;;0.38;;
73670;SDS011;61968;48.178;11.566;2022-09-28T05:54:23;0.70;;;0.52;;
73670;SDS011;61968;48.178;11.566;2022-09-28T05:56:50;0.55;;;0.50;;
73670;SDS011;61968;48.178;11.566;2022-09-28T05:59:17;1.65;;;0.20;;
73670;SDS011;61968;48.178;11.566;2022-09-28T06:01:43;0.73;;;0.43;;
73670;SDS011;61968;48.178;11.566;2022-09-28T06:04:11;0.25;;;0.15;;
73670;SDS011;61968;48.178;11.566;2022-09-28T06:06:38;0.57;;;0.55;;
73670;SDS011;61968;48.178;11.566;2022-09-28T06:09:05;1.08;;;0.52;;
73670;SDS011;61968;48.178;11.566;2022-09-28T06:11:31;0.77;;;0.40;;
73670;SDS011;61968;48.178;11.566;2022-09-28T06:13:57;1.30;;;0.63;;
73670;SDS011;61968;48.178;11.566;2022-09-28T06:16:24;1.00;;;0.40;;
73670;SDS011;61968;48.178;11.566;2022-09-28T06:18:50;1.27;;;0.40;;
73670;SDS011;61968;48.178;11.566;2022-09-28T06:23:44;0.68;;;0.30;;
73670;SDS011;61968;48.178;11.566;2022-09-28T06:26:11;0.77;;;0.47;;
73670;SDS011;61968;48.178;11.566;2022-09-28T06:28:37;1.95;;;0.35;;
73670;SDS011;61968;48.178;11.566;2022-09-28T06:31:04;0.47;;;0.40;;
73670;SDS011;61968;48.178;11.566;2022-09-28T06:33:30;0.30;;;0.30;;
73670;SDS011;61968;48.178;11.566;2022-09-28T06:35:57;0.40;;;0.40;;
73670;SDS011;61968;48.178;11.566;2022-09-28T06:38:25;2.15;;;0.30;;
73670;SDS011;61968;48.178;11.566;2022-09-28T06:40:51;0.52;;;0.40;;
73670;SDS011;61968;48.178;11.566;2022-09-28T06:43:18;0.30;;;0.30;;
73670;SDS011;61968;48.178;11.566;2022-09-28T06:45:49;0.50;;;0.45;;
73670;SDS011;61968;48.178;11.566;2022-09-28T06:48:16;0.47;;;0.20;;
73670;SDS011;61968;48.178;11.566;2022-09-28T06:50:43;4.57;;;0.73;;
73670;SDS011;61968;48.178;11.566;2022-09-28T06:53:10;0.70;;;0.20;;
73670;SDS011;61968;48.178;11.566;2022-09-28T06:55:40;0.30;;;0.30;;
73670;SDS011;61968;48.178;11.566;2022-09-28T06:58:08;0.32;;;0.30;;
73670;SDS011;61968;48.178;11.566;2022-09-28T07:00:37;1.58;;;0.60;;
73670;SDS011;61968;48.178;11.566;2022-09-28T07:03:05;1.38;;;0.60;;
73670;SDS011;61968;48.178;11.566;2022-09-28T07:05:33;1.60;;;0.50;;
73670;SDS011;61968;48.178;11.566;2022-09-28T07:08:02;0.80;;;0.50;;
73670;SDS011;61968;48.178;11.566;2022-09-28T07:10:29;0.90;;;0.50;;
73670;SDS011;61968;48.178;11.566;2022-09-28T07:12:59;1.25;;;0.60;;
73670;SDS011;61968;48.178;11.566;2022-09-28T07:15:28;2.05;;;0.30;;
73670;SDS011;61968;48.178;11.566;2022-09-28T07:17:55;0.98;;;0.30;;
73670;SDS011;61968;48.178;11.566;2022-09-28T07:20:22;0.30;;;0.30;;
73670;SDS011;61968;48.178;11.566;2022-09-28T07:22:51;2.38;;;1.85;;
73670;SDS011;61968;48.178;11.566;2022-09-28T07:25:18;0.65;;;0.60;;
73670;SDS011;61968;48.178;11.566;2022-09-28T07:27:44;0.47;;;0.43;;
73670;SDS011;61968;48.178;11.566;2022-09-28T07:30:13;1.70;;;0.50;;
73670;SDS011;61968;48.178;11.566;2022-09-28T07:32:40;0.95;;;0.63;;
73670;SDS011;61968;48.178;11.566;2022-09-28T07:35:07;0.17;;;0.17;;
73670;SDS011;61968;48.178;11.566;2022-09-28T07:37:34;0.32;;;0.32;;
73670;SDS011;61968;48.178;11.566;2022-09-28T07:40:01;0.75;;;0.50;;
73670;SDS011;61968;48.178;11.566;2022-09-28T07:42:46;1.30;;;0.30;;
73670;SDS011;61968;48.178;11.566;2022-09-28T07:45:14;0.13;;;0.13;;
73670;SDS011;61968;48.178;11.566;2022-09-28T07:47:40;0.80;;;0.32;;
73670;SDS011;61968;48.178;11.566;2022-09-28T07:50:08;1.13;;;0.40;;
73670;SDS011;61968;48.178;11.566;2022-09-28T07:52:35;0.85;;;0.43;;
73670;SDS011;61968;48.178;11.566;2022-09-28T07:55:01;0.50;;;0.40;;
73670;SDS011;61968;48.178;11.566;2022-09-28T07:57:28;0.70;;;0.25;;
73670;SDS011;61968;48.178;11.566;2022-09-28T07:59:57;0.30;;;0.20;;
73670;SDS011;61968;48.178;11.566;2022-09-28T08:02:25;0.90;;;0.40;;
73670;SDS011;61968;48.178;11.566;2022-09-28T08:04:52;2.53;;;0.30;;
73670;SDS011;61968;48.178;11.566;2022-09-28T08:07:18;2.17;;;0.28;;
73670;SDS011;61968;48.178;11.566;2022-09-28T08:09:47;0.82;;;0.20;;
73670;SDS011;61968;48.178;11.566;2022-09-28T08:12:13;0.38;;;0.30;;
73670;SDS011;61968;48.178;11.566;2022-09-28T08:14:40;0.22;;;0.22;;
73670;SDS011;61968;48.178;11.566;2022-09-28T08:17:06;0.93;;;0.50;;
73670;SDS011;61968;48.178;11.566;2022-09-28T08:19:34;1.67;;;0.43;;
73670;SDS011;61968;48.178;11.566;2022-09-28T08:22:15;0.40;;;0.40;;
73670;SDS011;61968;48.178;11.566;2022-09-28T08:24:42;2.05;;;0.50;;
73670;SDS011;61968;48.178;11.566;2022-09-28T08:27:09;2.58;;;0.28;;
73670;SDS011;61968;48.178;11.566;2022-09-28T08:29:36;0.30;;;0.30;;
73670;SDS011;61968;48.178;11.566;2022-09-28T08:32:02;1.45;;;0.30;;
73670;SDS011;61968;48.178;11.566;2022-09-28T08:34:33;0.25;;;0.25;;
73670;SDS011;61968;48.178;11.566;2022-09-28T08:37:00;0.17;;;0.17;;
73670;SDS011;61968;48.178;11.566;2022-09-28T08:39:27;0.47;;;0.47;;
73670;SDS011;61968;48.178;11.566;2022-09-28T08:41:56;1.00;;;0.40;;
73670;SDS011;61968;48.178;11.566;2022-09-28T08:44:30;0.47;;;0.40;;
73670;SDS011;61968;48.178;11.566;2022-09-28T08:47:04;0.38;;;0.30;;
73670;SDS011;61968;48.178;11.566;2022-09-28T08:49:56;0.50;;;0.28;;
73670;SDS011;61968;48.178;11.566;2022-09-28T08:52:27;2.42;;;0.80;;
73670;SDS011;61968;48.178;11.566;2022-09-28T08:54:57;1.08;;;0.47;;
73670;SDS011;61968;48.178;11.566;2022-09-28T08:57:28;0.63;;;0.10;;
73670;SDS011;61968;48.178;11.566;2022-09-28T09:00:01;0.50;;;0.35;;
73670;SDS011;61968;48.178;11.566;2022-09-28T09:02:30;0.20;;;0.20;;
73670;SDS011;61968;48.178;11.566;2022-09-28T09:05:02;0.25;;;0.20;;
73670;SDS011;61968;48.178;11.566;2022-09-28T09:10:36;1.95;;;0.60;;
73670;SDS011;61968;48.178;11.566;2022-09-28T09:13:15;2.20;;;0.70;;
73670;SDS011;61968;48.178;11.566;2022-09-28T09:15:55;0.35;;;0.35;;
73670;SDS011;61968;48.178;11.566;2022-09-28T09:18:29;0.45;;;0.45;;
73670;SDS011;61968;48.178;11.566;2022-09-28T09:21:04;1.83;;;0.55;;
73670;SDS011;61968;48.178;11.566;2022-09-28T09:23:42;1.02;;;0.47;;
73670;SDS011;61968;48.178;11.566;2022-09-28T09:26:19;1.25;;;0.35;;
73670;SDS011;61968;48.178;11.566;2022-09-28T09:28:54;1.40;;;0.50;;
73670;SDS011;61968;48.178;11.566;2022-09-28T09:31:38;2.15;;;0.45;;
73670;SDS011;61968;48.178;11.566;2022-09-28T09:34:26;1.65;;;0.52;;
73670;SDS011;61968;48.178;11.566;2022-09-28T09:37:12;1.80;;;0.80;;
73670;SDS011;61968;48.178;11.566;2022-09-28T09:39:52;0.30;;;0.28;;
73670;SDS011;61968;48.178;11.566;2022-09-28T09:42:32;2.58;;;0.55;;
73670;SDS011;61968;48.178;11.566;2022-09-28T09:45:15;0.50;;;0.50;;
73670;SDS011;61968;48.178;11.566;2022-09-28T09:47:52;1.65;;;0.60;;
73670;SDS011;61968;48.178;11.566;2022-09-28T09:50:24;0.93;;;0.50;;
73670;SDS011;61968;48.178;11.566;2022-09-28T09:52:57;2.17;;;0.70;;
73670;SDS011;61968;48.178;11.566;2022-09-28T09:55:26;0.60;;;0.52;;
73670;SDS011;61968;48.178;11.566;2022-09-28T09:57:58;0.68;;;0.60;;
73670;SDS011;61968;48.178;11.566;2022-09-28T10:00:33;1.60;;;1.17;;
73670;SDS011;61968;48.178;11.566;2022-09-28T10:02:59;4.43;;;1.05;;
73670;SDS011;61968;48.178;11.566;2022-09-28T10:05:28;0.65;;;0.45;;
73670;SDS011;61968;48.178;11.566;2022-09-28T10:07:59;0.55;;;0.50;;
73670;SDS011;61968;48.178;11.566;2022-09-28T10:10:29;1.13;;;0.85;;
73670;SDS011;61968;48.178;11.566;2022-09-28T10:12:59;3.40;;;0.65;;
73670;SDS011;61968;48.178;11.566;2022-09-28T10:15:27;2.03;;;0.50;;
73670;SDS011;61968;48.178;11.566;2022-09-28T10:17:56;3.42;;;1.13;;
73670;SDS011;61968;48.178;11.566;2022-09-28T10:20:24;0.30;;;0.30;;
73670;SDS011;61968;48.178;11.566;2022-09-28T10:22:55;1.33;;;0.45;;
73670;SDS011;61968;48.178;11.566;2022-09-28T10:25:23;1.25;;;0.77;;
73670;SDS011;61968;48.178;11.566;2022-09-28T10:27:50;0.65;;;0.50;;
73670;SDS011;61968;48.178;11.566;2022-09-28T10:30:17;0.50;;;0.20;;
73670;SDS011;61968;48.178;11.566;2022-09-28T10:32:47;5.25;;;1.83;;
73670;SDS011;61968;48.178;11.566;2022-09-28T10:35:24;0.68;;;0.43;;
73670;SDS011;61968;48.178;11.566;2022-09-28T10:37:53;1.70;;;0.55;;
73670;SDS011;61968;48.178;11.566;2022-09-28T10:40:37;5.88;;;1.00;;
73670;SDS011;61968;48.178;11.566;2022-09-28T10:43:14;2.88;;;0.50;;
73670;SDS011;61968;48.178;11.566;2022-09-28T10:45:45;1.02;;;0.65;;
73670;SDS011;61968;48.178;11.566;2022-09-28T10:48:16;0.88;;;0.57;;
73670;SDS011;61968;48.178;11.566;2022-09-28T10:50:59;0.40;;;0.40;;
73670;SDS011;61968;48.178;11.566;2022-09-28T10:53:28;0.22;;;0.20;;
73670;SDS011;61968;48.178;11.566;2022-09-28T10:55:57;0.70;;;0.50;;
73670;SDS011;61968;48.178;11.566;2022-09-28T10:58:26;0.45;;;0.40;;
73670;SDS011;61968;48.178;11.566;2022-09-28T11:01:03;0.40;;;0.40;;
73670;SDS011;61968;48.178;11.566;2022-09-28T11:03:33;0.60;;;0.22;;
73670;SDS011;61968;48.178;11.566;2022-09-28T11:06:21;2.45;;;0.45;;
73670;SDS011;61968;48.178;11.566;2022-09-28T11:08:49;0.35;;;0.22;;
73670;SDS011;61968;48.178;11.566;2022-09-28T11:11:18;2.72;;;0.45;;
73670;SDS011;61968;48.178;11.566;2022-09-28T11:13:45;0.50;;;0.50;;
73670;SDS011;61968;48.178;11.566;2022-09-28T11:16:17;0.50;;;0.20;;
73670;SDS011;61968;48.178;11.566;2022-09-28T11:21:13;1.23;;;0.73;;
73670;SDS011;61968;48.178;11.566;2022-09-28T11:23:41;0.45;;;0.40;;
73670;SDS011;61968;48.178;11.566;2022-09-28T11:26:22;1.25;;;0.43;;
73670;SDS011;61968;48.178;11.566;2022-09-28T11:28:49;0.52;;;0.43;;
73670;SDS011;61968;48.178;11.566;2022-09-28T11:31:22;1.60;;;1.15;;
73670;SDS011;61968;48.178;11.566;2022-09-28T11:33:51;0.40;;;0.40;;
73670;SDS011;61968;48.178;11.566;2022-09-28T11:36:30;0.40;;;0.40;;
73670;SDS011;61968;48.178;11.566;2022-09-28T11:39:10;1.40;;;0.60;;
73670;SDS011;61968;48.178;11.566;2022-09-28T11:41:51;8.32;;;0.73;;
73670;SDS011;61968;48.178;11.566;2022-09-28T11:44:30;0.73;;;0.35;;
73670;SDS011;61968;48.178;11.566;2022-09-28T11:47:04;0.80;;;0.60;;
73670;SDS011;61968;48.178;11.566;2022-09-28T11:49:46;2.60;;;1.08;;
73670;SDS011;61968;48.178;11.566;2022-09-28T11:52:18;0.40;;;0.40;;
73670;SDS011;61968;48.178;11.566;2022-09-28T11:54:49;0.60;;;0.60;;
73670;SDS011;61968;48.178;11.566;2022-09-28T11:57:22;0.98;;;0.45;;
73670;SDS011;61968;48.178;11.566;2022-09-28T11:59:54;2.88;;;0.93;;
73670;SDS011;61968;48.178;11.566;2022-09-28T12:02:25;1.20;;;0.93;;
73670;SDS011;61968;48.178;11.566;2022-09-28T12:04:57;1.85;;;0.80;;
73670;SDS011;61968;48.178;11.566;2022-09-28T12:07:37;1.27;;;0.70;;
73670;SDS011;61968;48.178;11.566;2022-09-28T12:10:09;2.55;;;0.70;;
73670;SDS011;61968;48.178;11.566;2022-09-28T12:12:42;1.05;;;0.52;;
73670;SDS011;61968;48.178;11.566;2022-09-28T12:15:14;1.30;;;1.05;;
73670;SDS011;61968;48.178;11.566;2022-09-28T12:17:44;1.42;;;0.57;;
73670;SDS011;61968;48.178;11.566;2022-09-28T12:20:17;0.57;;;0.57;;
73670;SDS011;61968;48.178;11.566;2022-09-28T12:22:50;2.17;;;1.13;;
73670;SDS011;61968;48.178;11.566;2022-09-28T12:25:26;0.75;;;0.75;;
73670;SDS011;61968;48.178;11.566;2022-09-28T12:28:00;1.15;;;0.70;;
73670;SDS011;61968;48.178;11.566;2022-09-28T12:30:32;1.55;;;0.60;;
73670;SDS011;61968;48.178;11.566;2022-09-28T12:33:06;1.77;;;0.70;;
73670;SDS011;61968;48.178;11.566;2022-09-28T12:35:39;1.30;;;0.70;;
73670;SDS011;61968;48.178;11.566;2022-09-28T12:38:18;1.42;;;0.60;;
73670;SDS011;61968;48.178;11.566;2022-09-28T12:40:55;2.80;;;0.90;;
73670;SDS011;61968;48.178;11.566;2022-09-28T12:43:35;3.33;;;1.42;;
73670;SDS011;61968;48.178;11.566;2022-09-28T12:49:23;1.00;;;0.90;;
73670;SDS011;61968;48.178;11.566;2022-09-28T12:51:58;2.38;;;1.05;;
73670;SDS011;61968;48.178;11.566;2022-09-28T12:54:38;1.50;;;0.57;;
73670;SDS011;61968;48.178;11.566;2022-09-28T12:57:29;0.60;;;0.60;;
73670;SDS011;61968;48.178;11.566;2022-09-28T13:00:05;0.93;;;0.70;;
73670;SDS011;61968;48.178;11.566;2022-09-28T13:02:39;1.35;;;0.85;;
73670;SDS011;61968;48.178;11.566;2022-09-28T13:05:22;3.80;;;1.30;;
73670;SDS011;61968;48.178;11.566;2022-09-28T13:08:00;0.82;;;0.80;;
73670;SDS011;61968;48.178;11.566;2022-09-28T13:10:38;1.58;;;0.80;;
73670;SDS011;61968;48.178;11.566;2022-09-28T13:13:17;4.47;;;1.30;;
73670;SDS011;61968;48.178;11.566;2022-09-28T13:15:58;0.95;;;0.75;;
73670;SDS011;61968;48.178;11.566;2022-09-28T13:18:31;1.75;;;0.90;;
73670;SDS011;61968;48.178;11.566;2022-09-28T13:21:12;1.85;;;0.90;;
73670;SDS011;61968;48.178;11.566;2022-09-28T13:23:44;0.70;;;0.70;;
73670;SDS011;61968;48.178;11.566;2022-09-28T13:26:18;2.13;;;0.75;;
73670;SDS011;61968;48.178;11.566;2022-09-28T13:28:51;4.32;;;0.43;;
73670;SDS011;61968;48.178;11.566;2022-09-28T13:31:23;4.07;;;1.60;;
73670;SDS011;61968;48.178;11.566;2022-09-28T13:33:56;1.33;;;1.02;;
73670;SDS011;61968;48.178;11.566;2022-09-28T13:36:37;1.55;;;0.80;;
73670;SDS011;61968;48.178;11.566;2022-09-28T13:42:02;3.95;;;2.65;;
73670;SDS011;61968;48.178;11.566;2022-09-28T13:44:44;3.83;;;1.60;;
73670;SDS011;61968;48.178;11.566;2022-09-28T13:47:30;2.47;;;0.75;;
73670;SDS011;61968;48.178;11.566;2022-09-28T13:52:43;1.20;;;0.70;;
73670;SDS011;61968;48.178;11.566;2022-09-28T13:55:27;3.25;;;0.82;;
73670;SDS011;61968;48.178;11.566;2022-09-28T13:58:01;2.83;;;0.90;;
73670;SDS011;61968;48.178;11.566;2022-09-28T14:00:31;0.90;;;0.82;;
73670;SDS011;61968;48.178;11.566;2022-09-28T14:03:10;2.90;;;1.30;;
73670;SDS011;61968;48.178;11.566;2022-09-28T14:05:53;1.15;;;0.70;;
73670;SDS011;61968;48.178;11.566;2022-09-28T14:08:33;1.45;;;1.15;;
73670;SDS011;61968;48.178;11.566;2022-09-28T14:20:24;1.33;;;0.90;;
73670;SDS011;61968;48.178;11.566;2022-09-28T14:22:58;4.25;;;1.20;;
73670;SDS011;61968;48.178;11.566;2022-09-28T14:25:37;3.85;;;1.02;;
73670;SDS011;61968;48.178;11.566;2022-09-28T14:28:22;3.88;;;1.73;;
73670;SDS011;61968;48.178;11.566;2022-09-28T14:30:59;3.25;;;1.52;;
73670;SDS011;61968;48.178;11.566;2022-09-28T14:33:35;4.28;;;2.22;;
73670;SDS011;61968;48.178;11.566;2022-09-28T14:36:06;7.20;;;3.00;;
73670;SDS011;61968;48.178;11.566;2022-09-28T14:42:06;9.82;;;4.65;;
73670;SDS011;61968;48.178;11.566;2022-09-28T14:44:46;57.33;;;21.15;;
73670;SDS011;61968;48.178;11.566;2022-09-28T14:48:12;50.80;;;19.95;;
73670;SDS011;61968;48.178;11.566;2022-09-28T14:50:43;15.43;;;6.82;;
73670;SDS011;61968;48.178;11.566;2022-09-28T14:53:12;8.88;;;3.90;;
73670;SDS011;61968;48.178;11.566;2022-09-28T14:55:45;3.45;;;2.00;;
73670;SDS011;61968;48.178;11.566;2022-09-28T14:58:20;2.08;;;1.40;;
73670;SDS011;61968;48.178;11.566;2022-09-28T15:03:21;1.65;;;1.20;;
73670;SDS011;61968;48.178;11.566;2022-09-28T15:05:48;4.57;;;1.52;;
73670;SDS011;61968;48.178;11.566;2022-09-28T15:08:18;6.50;;;2.95;;
73670;SDS011;61968;48.178;11.566;2022-09-28T15:10:46;9.98;;;3.58;;
73670;SDS011;61968;48.178;11.566;2022-09-28T15:13:16;5.50;;;2.25;;
73670;SDS011;61968;48.178;11.566;2022-09-28T15:15:46;3.75;;;2.70;;
73670;SDS011;61968;48.178;11.566;2022-09-28T15:18:29;15.82;;;6.55;;
73670;SDS011;61968;48.178;11.566;2022-09-28T15:21:11;16.25;;;8.55;;
73670;SDS011;61968;48.178;11.566;2022-09-28T15:23:39;66.35;;;26.55;;
73670;SDS011;61968;48.178;11.566;2022-09-28T15:26:17;21.17;;;8.63;;
73670;SDS011;61968;48.178;11.566;2022-09-28T15:28:47;7.63;;;3.10;;
73670;SDS011;61968;48.178;11.566;2022-09-28T15:31:15;4.53;;;2.40;;
73670;SDS011;61968;48.178;11.566;2022-09-28T15:33:44;2.17;;;1.75;;
73670;SDS011;61968;48.178;11.566;2022-09-28T15:36:29;20.98;;;10.30;;
73670;SDS011;61968;48.178;11.566;2022-09-28T15:39:00;30.33;;;13.25;;
73670;SDS011;61968;48.178;11.566;2022-09-28T15:41:29;48.70;;;19.83;;
73670;SDS011;61968;48.178;11.566;2022-09-28T15:44:26;83.72;;;31.58;;
73670;SDS011;61968;48.178;11.566;2022-09-28T15:47:03;55.70;;;25.25;;
73670;SDS011;61968;48.178;11.566;2022-09-28T15:49:35;31.08;;;14.68;;
73670;SDS011;61968;48.178;11.566;2022-09-28T15:52:05;23.88;;;10.18;;
73670;SDS011;61968;48.178;11.566;2022-09-28T15:54:45;22.02;;;9.95;;